Nearby METAR Reports

 

CYYY - Mont Joli Airpor, Quebec, Canada
Distance from station: NE 44km
Mise à jour: Sun, 23-Sep-2018 10:00am EDT
pluie légère, couvert
pluie légère, couvert
 Wind from NO
Vent: NO 28 km/h
Température: 6°C
Facteur vent: 2°C
Point de rosée: 3°C
Humidité: 81%
Baromètre: 1020.3 hPa
Résumé: pluie légère
Clouds: couvert
Visibility: 24 km
Cloud details: nuageux 1158 m
couvert 1676 m
2018/09/23 14:00 CYYY 231400Z 32015KT 15SM -RA BKN038 OVC055 06/03 A3013 RMK SC6SC2 SLP206
CWZS - Amqui, Quebec, Canada
Distance from station: E 94km
Mise à jour: Sun, 23-Sep-2018 7:00pm EDT

 Wind from ONO
Vent: ONO 11 km/h
Température: 9°C
Facteur vent: 7°C
Point de rosée: 0°C
Humidité: 54%
2018/09/23 23:00 CWZS 232300Z AUTO 29006KT 09/00 RMK AO1 SLP179 T00870000 52023
 
CWQO - Ile Bicquette, Quebec, Canada
Distance from station: ONO 15km
Mise à jour: Sun, 23-Sep-2018 10:00am EDT

 Wind from NNO
Vent: NNO 24 km/h, Rafale: 33 km/h
Température: 7°C
Facteur vent: 3°C
Point de rosée: 3°C
Humidité: 76%
2018/09/23 14:00 CWQO 231400Z AUTO 34013G18KT 07/03 RMK AO1 PK WND 24020/1301 T00680034
CWNH - Riviere Du Loup, Quebec, Canada
Distance from station: SO 90km
Mise à jour: Sun, 23-Sep-2018 10:00am EDT

 Wind from NNO
Vent: NNO 15 km/h
Température: 7°C
Facteur vent: 4°C
Point de rosée: 2°C
Humidité: 71%
2018/09/23 14:00 CWNH 231400Z AUTO 33008KT 07/02 RMK AO1 SLP215 T00650016 53026
 
CWAF - Ile Rouge(Maps), Quebec, Canada
Distance from station: OSO 70km
Mise à jour: Sun, 23-Sep-2018 10:00am EDT

 Wind from N
Vent: N 67 km/h
Température: 8°C
Facteur vent: 2°C
2018/09/23 14:00 CWAF 231400Z AUTO 00036KT 08/ RMK AO1 T0078
CYBC - Baie Comeau Airp, Quebec, Canada
Distance from station: NNE 90km
Mise à jour: Sun, 23-Sep-2018 10:00am EDT
nuageux
nuageux
 Wind from NO
Vent: NO 17 km/h, Rafale: 30 km/h
Température: 6°C
Facteur vent: 3°C
Point de rosée: -1°C
Humidité: 61%
Baromètre: 1020 hPa
Clouds: nuageux
Visibility: 14 km
Cloud details: nuageux 5182 m
2018/09/23 14:00 CYBC 231400Z AUTO 32009G16KT 9SM BKN170 06/M01 A3012 RMK SLP203